createdAt,value
2023-01-05T00:01:10.861Z,80.33
2023-01-05T00:03:38.923Z,79.12
2023-01-05T00:06:11.362Z,79.05
2023-01-05T00:08:38.564Z,79.71
2023-01-05T00:11:25.045Z,78.89
2023-01-05T00:14:49.703Z,79.99
2023-01-05T00:17:40.468Z,81.07
2023-01-05T00:20:34.723Z,80.11
2023-01-05T00:23:01.352Z,79.96
2023-01-05T00:26:01.668Z,79.44
2023-01-05T00:28:47.676Z,79.91
2023-01-05T00:31:14.214Z,80.36
2023-01-05T00:33:40.778Z,78.84
2023-01-05T00:36:11.139Z,79.87
2023-01-05T00:38:40.468Z,79.28
2023-01-05T00:49:48.218Z,79.44
2023-01-05T00:52:14.755Z,78.95
2023-01-05T00:54:41.377Z,78.64
2023-01-05T00:57:13.730Z,78.33
2023-01-05T01:03:27.710Z,78.37
2023-01-05T01:05:58.411Z,79.60
2023-01-05T01:08:25.507Z,78.17
2023-01-05T01:10:52.181Z,78.12
2023-01-05T01:13:18.881Z,77.94
2023-01-05T01:15:45.454Z,77.78
2023-01-05T01:18:31.379Z,77.10
2023-01-05T01:20:57.918Z,76.98
2023-01-05T01:23:24.554Z,77.45
2023-01-05T01:25:51.178Z,77.68
2023-01-05T01:29:11.075Z,77.59
2023-01-05T01:32:17.961Z,77.06
2023-01-05T01:34:45.444Z,77.08
2023-01-05T01:37:12.194Z,76.23
2023-01-05T01:39:38.736Z,75.93
2023-01-05T01:42:06.264Z,75.93
2023-01-05T01:44:56.230Z,75.77
2023-01-05T01:48:03.546Z,76.17
2023-01-05T01:50:34.886Z,75.81
2023-01-05T01:53:44.251Z,76.21
2023-01-05T01:56:14.854Z,76.25
2023-01-05T01:59:13.515Z,76.59
2023-01-05T02:02:05.262Z,76.36
2023-01-05T02:36:28.491Z,75.23
2023-01-05T02:47:45.123Z,74.77
2023-01-05T04:05:09.379Z,78.78
2023-01-05T04:07:36.095Z,78.13
2023-01-05T04:10:02.806Z,77.24
2023-01-05T04:12:29.375Z,76.77
2023-01-05T04:14:55.926Z,76.43
2023-01-05T04:34:09.255Z,75.08
2023-01-05T04:36:35.814Z,75.16
2023-01-05T04:39:05.034Z,74.95
2023-01-05T04:41:35.232Z,75.29
2023-01-05T04:44:01.844Z,74.83
2023-01-05T04:46:28.489Z,75.15
2023-01-05T05:48:23.399Z,83.29
2023-01-05T05:50:49.956Z,80.79
2023-01-05T05:53:16.554Z,79.07
2023-01-05T06:09:41.222Z,82.14
2023-01-05T06:35:29.539Z,77.94
2023-01-05T06:40:45.842Z,77.63
2023-01-05T06:43:21.527Z,79.93
2023-01-05T06:46:06.362Z,78.66
2023-01-05T06:59:28.447Z,81.31
2023-01-05T07:47:17.635Z,77.35
2023-01-05T07:49:50.467Z,77.90
2023-01-05T07:52:17.816Z,79.43
2023-01-05T07:54:45.313Z,80.42
2023-01-05T07:57:11.941Z,80.08
2023-01-05T07:59:38.484Z,81.26
2023-01-05T08:02:05.112Z,81.12
2023-01-05T08:56:59.248Z,84.96
2023-01-05T09:12:42.410Z,80.80
2023-01-05T09:15:09.247Z,81.56
2023-01-05T09:17:38.638Z,80.10
2023-01-05T09:20:07.320Z,79.91
2023-01-05T09:22:36.134Z,79.35
2023-01-05T09:25:18.277Z,77.58
2023-01-05T09:28:13.411Z,77.59
2023-01-05T09:33:49.718Z,76.75
2023-01-05T09:36:26.158Z,76.19
2023-01-05T09:39:24.447Z,79.64
2023-01-05T09:41:54.825Z,79.01
2023-01-05T09:44:45.299Z,80.46
2023-01-05T09:47:18.557Z,82.98
2023-01-05T09:49:47.488Z,85.20
2023-01-05T09:52:14.311Z,84.06
2023-01-05T09:54:41.235Z,84.28
2023-01-05T09:57:19.230Z,83.38
2023-01-05T09:59:52.714Z,83.70
2023-01-05T10:02:42.482Z,81.12
2023-01-05T10:05:13.321Z,82.22
2023-01-05T10:08:00.630Z,80.11
2023-01-05T10:11:18.426Z,81.03
2023-01-05T10:13:57.071Z,82.61
2023-01-05T10:16:29.307Z,81.71
2023-01-05T10:18:56.394Z,81.49
2023-01-05T10:21:48.304Z,82.72
2023-01-05T10:24:36.705Z,82.97
2023-01-05T10:27:25.797Z,83.74
2023-01-05T10:30:11.294Z,84.11
2023-01-05T10:33:21.985Z,83.07
2023-01-05T10:36:04.095Z,80.68
2023-01-05T10:39:15.663Z,79.06
2023-01-05T10:41:58.928Z,77.63
2023-01-05T10:44:34.118Z,76.68
2023-01-05T10:47:01.133Z,76.23
2023-01-05T10:49:31.134Z,76.28
2023-01-05T10:52:01.085Z,78.09
2023-01-05T10:54:43.941Z,77.11
2023-01-05T10:57:34.069Z,76.71
2023-01-05T11:00:22.469Z,76.37
2023-01-05T11:03:14.080Z,76.14
2023-01-05T11:05:48.568Z,75.62
2023-01-05T11:08:29.893Z,75.60
2023-01-05T11:11:02.879Z,78.02
2023-01-05T11:13:29.317Z,80.93
2023-01-05T11:16:01.764Z,79.62
2023-01-05T11:18:49.852Z,80.37
2023-01-05T11:21:20.976Z,80.41
2023-01-05T11:23:48.915Z,81.08
2023-01-05T11:26:18.202Z,81.09
2023-01-05T11:28:59.910Z,80.95
2023-01-05T11:32:06.254Z,80.77
2023-01-05T11:34:43.263Z,81.17
2023-01-05T11:37:09.807Z,82.23
2023-01-05T11:39:41.286Z,83.20
2023-01-05T11:42:25.647Z,82.53
2023-01-05T11:44:52.705Z,81.65
2023-01-05T11:47:47.383Z,82.89
2023-01-05T11:50:13.976Z,81.89
2023-01-05T11:52:43.043Z,81.88
2023-01-05T11:55:33.555Z,82.24
2023-01-05T11:58:25.785Z,82.44
2023-01-05T12:01:16.384Z,82.33
2023-01-05T12:03:58.476Z,81.85
2023-01-05T12:06:33.119Z,82.75
2023-01-05T12:09:35.328Z,82.25
2023-01-05T12:12:32.886Z,81.16
2023-01-05T12:15:05.672Z,81.06
2023-01-05T12:18:09.673Z,80.45
2023-01-05T12:20:52.728Z,79.15
2023-01-05T12:23:37.156Z,80.66
2023-01-05T12:26:21.922Z,80.15
2023-01-05T12:30:09.135Z,81.14
2023-01-05T12:35:35.902Z,81.80
2023-01-05T12:38:32.580Z,81.05
2023-01-05T12:41:08.279Z,82.78
2023-01-05T12:44:20.494Z,82.83
2023-01-05T12:47:06.774Z,84.35
2023-01-05T12:49:41.894Z,84.14
2023-01-05T12:52:22.071Z,84.21
2023-01-05T12:55:15.145Z,82.95
2023-01-05T12:57:57.458Z,82.39
2023-01-05T13:00:28.796Z,80.98
2023-01-05T13:03:00.684Z,82.04
2023-01-05T13:05:33.113Z,80.52
2023-01-05T13:08:17.506Z,80.03
2023-01-05T13:10:56.516Z,79.21
2023-01-05T13:13:31.890Z,79.36
2023-01-05T13:16:05.645Z,80.00
2023-01-05T13:18:37.112Z,79.68
2023-01-05T13:21:10.990Z,79.25
2023-01-05T13:24:02.096Z,78.86
2023-01-05T13:26:37.574Z,78.90
2023-01-05T13:29:04.868Z,78.21
2023-01-05T13:31:41.577Z,77.86
2023-01-05T13:34:26.507Z,77.57
2023-01-05T13:37:05.414Z,77.76
2023-01-05T13:39:50.503Z,79.10
2023-01-05T13:42:35.234Z,79.12
2023-01-05T13:45:07.795Z,78.85
2023-01-05T13:48:13.143Z,78.59
2023-01-05T13:50:42.623Z,79.14
2023-01-05T13:55:59.149Z,79.74
2023-01-05T13:58:47.468Z,78.54
2023-01-05T14:01:18.365Z,78.78
2023-01-05T14:03:52.616Z,78.53
2023-01-05T14:06:32.152Z,78.84
2023-01-05T14:09:56.063Z,79.06
2023-01-05T14:12:41.833Z,78.29
2023-01-05T14:15:12.785Z,79.65
2023-01-05T14:17:54.413Z,79.24
2023-01-05T14:24:36.927Z,77.83
2023-01-05T14:27:07.963Z,77.42
2023-01-05T14:29:46.563Z,78.02
2023-01-05T14:32:25.851Z,77.19
2023-01-05T14:37:34.616Z,77.59
2023-01-05T14:40:09.033Z,77.65
2023-01-05T14:42:41.057Z,77.62
2023-01-05T14:45:20.740Z,76.94
2023-01-05T14:47:54.198Z,76.67
2023-01-05T14:50:29.849Z,76.95
2023-01-05T14:53:00.926Z,76.57
2023-01-05T14:55:40.212Z,76.31
2023-01-05T14:58:14.847Z,76.11
2023-01-05T15:00:49.077Z,76.62
2023-01-05T15:03:21.736Z,76.39
2023-01-05T15:06:06.289Z,76.04
2023-01-05T15:08:38.818Z,76.37
2023-01-05T15:11:51.625Z,76.02
2023-01-05T15:14:43.591Z,75.85
2023-01-05T15:17:20.142Z,75.93
2023-01-05T15:19:49.999Z,75.94
2023-01-05T15:22:46.867Z,76.30
2023-01-05T15:25:31.795Z,76.02
2023-01-05T15:28:20.334Z,76.14
2023-01-05T15:30:52.833Z,75.82
2023-01-05T15:33:27.013Z,75.55
2023-01-05T15:36:00.811Z,75.71
2023-01-05T15:38:29.832Z,75.53
2023-01-05T15:41:07.437Z,75.53
2023-01-05T15:43:34.945Z,75.61
2023-01-05T15:46:02.112Z,75.43
2023-01-05T15:48:43.883Z,75.24
2023-01-05T15:51:13.784Z,76.00
2023-01-05T15:53:41.251Z,75.87
2023-01-05T15:56:28.316Z,76.52
2023-01-05T15:58:55.608Z,76.19
2023-01-05T16:01:24.809Z,76.61
2023-01-05T16:03:51.569Z,76.10
2023-01-05T16:06:22.213Z,76.49
2023-01-05T16:08:54.245Z,76.55
2023-01-05T16:11:43.799Z,76.43
2023-01-05T16:14:28.877Z,76.36
2023-01-05T16:17:02.452Z,76.25
2023-01-05T16:20:01.485Z,76.96
2023-01-05T16:22:36.977Z,76.61
2023-01-05T16:25:11.291Z,76.61
2023-01-05T16:27:43.665Z,77.87
2023-01-05T16:30:41.044Z,78.87
2023-01-05T16:33:14.109Z,78.72
2023-01-05T16:35:43.453Z,78.48
2023-01-05T16:38:09.962Z,78.73
2023-01-05T16:40:54.919Z,77.86
2023-01-05T16:43:35.687Z,77.26
2023-01-05T16:46:20.318Z,77.43
2023-01-05T16:48:54.785Z,77.34
2023-01-05T16:51:23.866Z,77.45
2023-01-05T16:53:54.339Z,77.55
2023-01-05T16:56:33.074Z,76.77
2023-01-05T16:59:04.872Z,76.93
2023-01-05T17:01:37.677Z,77.55
2023-01-05T17:04:16.307Z,77.82
2023-01-05T17:06:49.502Z,77.95
2023-01-05T17:09:33.432Z,77.48
2023-01-05T17:11:59.985Z,77.04
2023-01-05T17:14:28.305Z,76.98
2023-01-05T17:16:55.309Z,76.67
2023-01-05T17:19:22.490Z,76.22
2023-01-05T17:21:59.194Z,76.25
2023-01-05T17:24:26.946Z,76.59
2023-01-05T17:26:53.654Z,76.92
2023-01-05T17:29:25.862Z,76.94
2023-01-05T17:31:52.652Z,76.52
2023-01-05T17:34:19.592Z,76.72
2023-01-05T17:36:48.073Z,77.42
2023-01-05T17:39:17.087Z,76.95
2023-01-05T17:41:43.954Z,76.53
2023-01-05T17:44:10.689Z,76.88
2023-01-05T17:46:45.120Z,76.75
2023-01-05T17:49:18.146Z,76.86
2023-01-05T17:51:49.839Z,77.23
2023-01-05T17:54:16.412Z,77.63
2023-01-05T17:56:42.971Z,77.68
2023-01-05T17:59:09.603Z,78.17
2023-01-05T18:01:36.424Z,79.00
2023-01-05T18:04:03.179Z,79.61
2023-01-05T18:06:29.920Z,79.83
2023-01-05T18:08:56.487Z,78.99
2023-01-05T18:11:23.120Z,78.62
2023-01-05T18:13:49.908Z,78.89
2023-01-05T18:16:17.055Z,77.90
2023-01-05T18:18:43.738Z,78.25
2023-01-05T18:21:10.332Z,77.59
2023-01-05T18:23:36.988Z,77.30
2023-01-05T18:26:08.475Z,77.98
2023-01-05T18:28:36.514Z,77.51
2023-01-05T18:31:13.991Z,78.09
2023-01-05T18:33:41.567Z,78.17
2023-01-05T18:36:09.855Z,77.50
2023-01-05T18:38:37.499Z,77.01
2023-01-05T18:41:05.084Z,76.71
2023-01-05T18:43:32.684Z,76.70
2023-01-05T18:45:59.390Z,76.80
2023-01-05T18:48:25.958Z,77.33
2023-01-05T18:50:52.608Z,77.45
2023-01-05T18:53:20.695Z,78.45
2023-01-05T18:55:47.845Z,77.08
2023-01-05T18:58:14.677Z,77.30
2023-01-05T19:00:43.040Z,77.54
2023-01-05T19:03:10.168Z,77.27
2023-01-05T19:05:44.493Z,77.30
2023-01-05T19:08:12.991Z,76.67
2023-01-05T19:10:40.449Z,76.12
2023-01-05T19:13:07.036Z,76.00
2023-01-05T19:15:37.558Z,75.01
2023-01-05T19:18:05.231Z,75.03
2023-01-05T19:20:32.019Z,74.71
2023-01-05T19:23:00.343Z,74.22
2023-01-05T19:25:26.976Z,74.64
2023-01-05T19:27:53.573Z,74.38
2023-01-05T19:30:22.078Z,73.96
2023-01-05T19:32:48.793Z,74.23
2023-01-05T19:35:15.630Z,74.60
2023-01-05T19:37:42.520Z,74.56
2023-01-05T19:40:10.540Z,74.35
2023-01-05T19:42:37.298Z,73.91
2023-01-05T19:45:04.224Z,73.90
2023-01-05T19:47:30.988Z,74.23
2023-01-05T19:49:57.568Z,74.21
2023-01-05T19:52:29.575Z,74.16
2023-01-05T19:54:56.588Z,75.13
2023-01-05T19:57:23.814Z,74.37
2023-01-05T19:59:53.746Z,74.55
2023-01-05T20:02:20.335Z,75.55
2023-01-05T20:04:48.394Z,76.54
2023-01-05T20:07:15.055Z,76.09
2023-01-05T20:09:41.615Z,75.65
2023-01-05T20:12:14.734Z,75.78
2023-01-05T20:14:42.369Z,75.63
2023-01-05T20:17:10.905Z,76.03
2023-01-05T20:19:39.182Z,76.49
2023-01-05T20:22:08.379Z,75.67
2023-01-05T20:24:45.389Z,75.49
2023-01-05T20:27:30.401Z,75.45
2023-01-05T20:29:57.133Z,75.21
2023-01-05T20:32:25.727Z,75.20
2023-01-05T20:35:49.508Z,74.12
2023-01-05T20:41:28.986Z,74.28
2023-01-05T20:43:56.578Z,74.12
2023-01-05T20:46:29.440Z,72.95
2023-01-05T20:48:56.500Z,73.90
2023-01-05T20:51:24.255Z,72.69
2023-01-05T20:53:52.757Z,72.58
2023-01-05T20:56:22.565Z,72.16
2023-01-05T20:58:51.289Z,71.46
2023-01-05T21:01:37.450Z,71.04
2023-01-05T21:04:06.199Z,70.75
2023-01-05T21:06:33.653Z,70.21
2023-01-05T21:09:00.402Z,70.19
2023-01-05T21:11:29.236Z,70.22
2023-01-05T21:13:57.355Z,70.18
2023-01-05T21:16:34.931Z,69.87
2023-01-05T21:19:01.973Z,70.58
2023-01-05T21:21:29.533Z,70.12
2023-01-05T21:23:56.719Z,69.97
2023-01-05T21:26:23.976Z,70.18
2023-01-05T21:28:52.643Z,70.14
2023-01-05T21:31:22.834Z,70.51
2023-01-05T21:33:52.380Z,70.63
2023-01-05T21:36:22.858Z,70.99
2023-01-05T21:38:59.937Z,70.86
2023-01-05T21:41:49.264Z,72.27
2023-01-05T21:44:16.094Z,72.36
2023-01-05T21:46:43.469Z,72.94
2023-01-05T21:49:11.310Z,73.34
2023-01-05T21:51:56.671Z,72.91
2023-01-05T21:54:42.667Z,73.23
2023-01-05T21:57:09.980Z,73.14
2023-01-05T21:59:36.672Z,73.50
2023-01-05T22:02:03.421Z,74.79
2023-01-05T22:04:30.041Z,73.56
2023-01-05T22:06:57.186Z,73.25
2023-01-05T22:09:23.866Z,72.69
2023-01-05T22:11:50.475Z,73.21
2023-01-05T22:14:17.119Z,73.03
2023-01-05T22:16:43.870Z,72.99
2023-01-05T22:19:13.290Z,72.37
2023-01-05T22:21:39.850Z,73.44
2023-01-05T22:24:28.466Z,72.79
2023-01-05T22:26:55.092Z,72.17
2023-01-05T22:29:21.868Z,73.39
2023-01-05T22:31:50.695Z,72.14
2023-01-05T22:40:59.149Z,72.62
2023-01-05T22:43:26.269Z,72.75
2023-01-05T22:45:53.270Z,72.22
2023-01-05T22:48:20.551Z,71.74
2023-01-05T22:50:47.454Z,72.75
2023-01-05T22:53:14.140Z,72.73
2023-01-05T22:55:44.064Z,74.64
2023-01-05T22:58:11.361Z,73.44
2023-01-05T23:00:37.936Z,73.08
2023-01-05T23:03:04.508Z,73.68
2023-01-05T23:05:32.876Z,73.71
2023-01-05T23:07:59.420Z,72.94
2023-01-05T23:27:05.555Z,72.37
2023-01-05T23:29:32.133Z,72.11
2023-01-05T23:31:58.785Z,72.57
2023-01-05T23:34:25.395Z,72.24
2023-01-05T23:36:51.954Z,71.48
2023-01-05T23:39:38.233Z,71.26
2023-01-05T23:42:40.291Z,71.13
2023-01-05T23:45:07.623Z,71.24
2023-01-05T23:47:34.187Z,71.50
2023-01-05T23:50:51.594Z,71.27
2023-01-05T23:53:43.943Z,69.84
2023-01-05T23:56:16.431Z,69.30
2023-01-05T23:58:43.428Z,69.28
